Time;durP1;ratioP1;P1;durP2;ratioP2;P2;SDS_P1;SDS_P2;PMS_P1;PMS_P2;Temp;Humidity;BMP_temperature;BMP_pressure;BME280_temperature;BME280_humidity;BME280_pressure;Samples;Min_cycle;Max_cycle;Signal;HPM_P1;HPM_P2
2023/09/19 00:00:27;;;;;;;;;;;;;;;17.22;100.00;100691.47;5308841;28;20289;-72
2023/09/19 00:03:01;;;;;;;;;;;;;;;17.25;100.00;100688.47;5307076;28;20076;-72
2023/09/19 00:05:35;;;;;;;;;;;;;;;17.19;100.00;100705.06;5308649;28;20254;-72
2023/09/19 00:08:07;;;;;;;;;;;;;;;17.21;100.00;100700.44;5302098;28;20023;-72
2023/09/19 00:10:39;;;;;;;;;;;;;;;17.16;100.00;100702.78;5310950;28;20456;-73
2023/09/19 00:13:14;;;;;;;;;;;;;;;17.15;100.00;100710.91;5310625;28;19923;-72
2023/09/19 00:15:48;;;;;;;;;;;;;;;17.12;100.00;100705.94;5306614;28;19923;-72
2023/09/19 00:18:24;;;;;;;;;;;;;;;17.10;100.00;100714.06;5303463;28;19920;-72
2023/09/19 00:20:58;;;;;;;;;;;;;;;17.09;100.00;100714.28;5306150;28;19915;-72
2023/09/19 00:23:32;;;;;;;;;;;;;;;17.05;100.00;100708.50;5288210;28;21227;-72
2023/09/19 00:26:04;;;;;;;;;;;;;;;17.06;100.00;100717.25;5309941;28;19962;-72
2023/09/19 00:28:35;;;;;;;;;;;;;;;17.09;100.00;100722.22;5305345;28;20007;-73
2023/09/19 00:31:08;;;;;;;;;;;;;;;17.04;100.00;100730.66;5303896;28;19923;-72
2023/09/19 00:33:39;;;;;;;;;;;;;;;17.01;100.00;100723.91;5308462;28;19918;-72
2023/09/19 00:36:10;;;;;;;;;;;;;;;17.02;100.00;100732.66;5306162;28;19917;-74
2023/09/19 00:38:44;;;;;;;;;;;;;;;17.00;100.00;100738.13;5307244;28;20069;-76
2023/09/19 00:41:15;;;;;;;;;;;;;;;16.97;100.00;100735.00;5304096;28;19929;-72
2023/09/19 00:43:47;;;;;;;;;;;;;;;16.97;100.00;100740.28;5305686;28;19924;-74
2023/09/19 00:46:18;;;;;;;;;;;;;;;16.96;100.00;100741.28;5304040;28;20388;-74
2023/09/19 00:48:50;;;;;;;;;;;;;;;16.93;100.00;100750.41;5303979;28;19927;-73
2023/09/19 00:51:22;;;;;;;;;;;;;;;16.92;100.00;100753.22;5309249;28;19934;-73
2023/09/19 00:53:53;;;;;;;;;;;;;;;16.90;100.00;100757.88;5306883;28;20392;-74
2023/09/19 00:56:25;;;;;;;;;;;;;;;16.90;100.00;100758.69;5306094;28;19934;-74
2023/09/19 00:58:56;;;;;;;;;;;;;;;16.94;100.00;100759.19;5307456;28;20010;-72
2023/09/19 01:01:28;;;;;;;;;;;;;;;16.89;100.00;100764.97;5305296;28;20262;-72
2023/09/19 01:03:59;;;;;;;;;;;;;;;16.91;100.00;100768.28;5307089;28;20638;-74
2023/09/19 01:06:31;;;;;;;;;;;;;;;16.88;100.00;100770.44;5304477;28;20018;-71
2023/09/19 01:09:04;;;;;;;;;;;;;;;16.81;100.00;100765.00;5306041;28;19920;-75
2023/09/19 01:11:40;;;;;;;;;;;;;;;16.83;100.00;100770.97;5307213;28;20000;-74
2023/09/19 01:14:15;;;;;;;;;;;;;;;16.80;100.00;100773.13;5302335;28;19919;-75
2023/09/19 01:17:09;;;;;;;;;;;;;;;16.81;100.00;100772.13;5307181;28;19920;-75
2023/09/19 01:19:49;;;;;;;;;;;;;;;16.79;100.00;100777.59;5306299;28;20313;-75
2023/09/19 01:22:35;;;;;;;;;;;;;;;16.74;100.00;100783.41;5311434;28;20372;-74
2023/09/19 01:25:27;;;;;;;;;;;;;;;16.70;100.00;100782.06;5305958;28;20428;-73
2023/09/19 01:28:10;;;;;;;;;;;;;;;16.73;100.00;100786.19;5312040;28;19920;-75
2023/09/19 01:30:43;;;;;;;;;;;;;;;16.72;100.00;100785.38;5309126;28;20412;-74
2023/09/19 01:33:15;;;;;;;;;;;;;;;16.73;100.00;100792.34;5309259;28;19923;-74
2023/09/19 01:35:47;;;;;;;;;;;;;;;16.68;100.00;100797.28;5313027;28;19924;-71
2023/09/19 01:38:19;;;;;;;;;;;;;;;16.62;100.00;100797.97;5311192;28;19924;-74
2023/09/19 01:40:56;;;;;;;;;;;;;;;16.67;100.00;100795.66;5312656;28;19938;-74
2023/09/19 01:43:32;;;;;;;;;;;;;;;16.64;100.00;100803.09;5308713;28;19923;-73
2023/09/19 01:46:16;;;;;;;;;;;;;;;16.65;100.00;100799.44;5311357;28;19916;-72
2023/09/19 01:49:02;;;;;;;;;;;;;;;16.60;100.00;100802.63;5312107;28;20270;-74
2023/09/19 01:51:37;;;;;;;;;;;;;;;16.59;100.00;100800.13;5309104;28;19920;-74
2023/09/19 01:54:12;;;;;;;;;;;;;;;16.57;100.00;100796.84;5309505;28;20385;-72
2023/09/19 01:56:51;;;;;;;;;;;;;;;16.50;100.00;100800.16;5308903;28;19916;-73
2023/09/19 01:59:31;;;;;;;;;;;;;;;16.52;100.00;100792.88;5309558;28;19916;-73
2023/09/19 02:02:03;;;;;;;;;;;;;;;16.50;100.00;100791.41;5310951;28;19928;-74
2023/09/19 02:04:37;;;;;;;;;;;;;;;16.50;100.00;100794.88;5311639;28;19922;-75
2023/09/19 02:07:08;;;;;;;;;;;;;;;16.49;100.00;100795.03;5292030;28;20318;-74
2023/09/19 02:09:39;;;;;;;;;;;;;;;16.47;100.00;100797.03;5308016;28;19919;-74
2023/09/19 02:12:11;;;;;;;;;;;;;;;16.47;100.00;100797.84;5304526;28;19924;-74
2023/09/19 02:14:42;;;;;;;;;;;;;;;16.48;100.00;100798.69;5310293;28;19923;-74
2023/09/19 02:17:13;;;;;;;;;;;;;;;16.45;100.00;100794.56;5308101;28;20014;-73
2023/09/19 02:19:44;;;;;;;;;;;;;;;16.40;100.00;100802.19;5308334;28;19961;-75
2023/09/19 02:22:16;;;;;;;;;;;;;;;16.36;100.00;100803.47;5308288;28;19930;-73
2023/09/19 02:24:48;;;;;;;;;;;;;;;16.38;100.00;100795.41;5304357;28;19919;-75
2023/09/19 02:27:19;;;;;;;;;;;;;;;16.35;100.00;100801.84;5309412;28;19924;-75
2023/09/19 02:29:51;;;;;;;;;;;;;;;16.32;100.00;100804.81;5310833;28;19935;-75
2023/09/19 02:32:23;;;;;;;;;;;;;;;16.28;100.00;100808.78;5309266;28;20380;-75
2023/09/19 02:34:54;;;;;;;;;;;;;;;16.28;100.00;100814.09;5308556;28;19920;-74
2023/09/19 02:37:25;;;;;;;;;;;;;;;16.22;100.00;100812.13;5309161;28;19916;-73
2023/09/19 02:39:56;;;;;;;;;;;;;;;16.20;100.00;100809.63;5311139;28;20369;-74
2023/09/19 02:42:27;;;;;;;;;;;;;;;16.13;100.00;100813.94;5307267;28;20327;-75
2023/09/19 02:44:59;;;;;;;;;;;;;;;16.13;100.00;100807.81;5313430;28;19924;-74
2023/09/19 02:47:31;;;;;;;;;;;;;;;16.13;100.00;100810.47;5309677;28;19926;-75
2023/09/19 02:50:02;;;;;;;;;;;;;;;16.10;100.00;100811.66;5309410;28;19916;-72
2023/09/19 02:52:34;;;;;;;;;;;;;;;16.08;100.00;100818.09;5311627;28;19922;-75
2023/09/19 02:55:09;;;;;;;;;;;;;;;16.05;100.00;100816.59;5312559;28;20353;-72
2023/09/19 02:57:42;;;;;;;;;;;;;;;16.02;100.00;100814.28;5304501;28;19927;-74
2023/09/19 03:00:14;;;;;;;;;;;;;;;16.00;100.00;100811.00;5309276;28;19916;-75
2023/09/19 03:02:46;;;;;;;;;;;;;;;15.97;100.00;100816.59;5307678;28;19924;-75
2023/09/19 03:05:17;;;;;;;;;;;;;;;15.98;100.00;100824.34;5312675;28;19915;-74
2023/09/19 03:07:50;;;;;;;;;;;;;;;15.92;100.00;100821.56;5291255;28;20015;-75
2023/09/19 03:10:21;;;;;;;;;;;;;;;15.89;100.00;100822.72;5309184;28;19919;-74
2023/09/19 03:12:52;;;;;;;;;;;;;;;15.82;100.00;100822.53;5308546;28;19916;-75
2023/09/19 03:15:24;;;;;;;;;;;;;;;15.87;100.00;100831.78;5308809;28;19923;-74
2023/09/19 03:17:55;;;;;;;;;;;;;;;15.89;100.00;100822.72;5303600;28;19920;-75
2023/09/19 03:20:27;;;;;;;;;;;;;;;15.89;100.00;100820.06;5311141;28;20423;-74
2023/09/19 03:22:59;;;;;;;;;;;;;;;15.86;100.00;100823.03;5311229;28;19931;-74
2023/09/19 03:25:30;;;;;;;;;;;;;;;15.88;100.00;100829.00;5302990;28;19920;-72
2023/09/19 03:28:05;;;;;;;;;;;;;;;15.88;100.00;100821.06;5302590;28;19916;-74
2023/09/19 03:30:36;;;;;;;;;;;;;;;15.84;100.00;100825.03;5308709;28;19920;-75
2023/09/19 03:33:08;;;;;;;;;;;;;;;15.86;100.00;100827.50;5308924;28;19924;-74
2023/09/19 03:35:39;;;;;;;;;;;;;;;15.82;100.00;100822.53;5314595;28;19920;-72
2023/09/19 03:38:10;;;;;;;;;;;;;;;15.86;100.00;100815.13;5309035;28;19916;-74
2023/09/19 03:40:43;;;;;;;;;;;;;;;15.82;100.00;100814.63;5305591;28;19919;-74
2023/09/19 03:43:14;;;;;;;;;;;;;;;15.90;100.00;100818.25;5306313;28;19928;-73
2023/09/19 03:45:46;;;;;;;;;;;;;;;15.88;100.00;100810.50;5307222;28;19927;-75
2023/09/19 03:48:17;;;;;;;;;;;;;;;15.90;100.00;100811.16;5302079;28;20370;-74
2023/09/19 03:50:49;;;;;;;;;;;;;;;15.92;100.00;100803.91;5307166;28;19927;-74
2023/09/19 03:53:20;;;;;;;;;;;;;;;15.89;100.00;100814.78;5310899;28;19939;-72
2023/09/19 03:55:52;;;;;;;;;;;;;;;15.94;100.00;100801.06;5308000;28;19919;-74
2023/09/19 03:58:23;;;;;;;;;;;;;;;15.96;100.00;100804.38;5304525;28;20040;-74
2023/09/19 04:00:58;;;;;;;;;;;;;;;15.89;100.00;100813.97;5301298;28;19923;-72
2023/09/19 04:03:35;;;;;;;;;;;;;;;15.93;100.00;100804.72;5306796;28;20322;-73
2023/09/19 04:06:06;;;;;;;;;;;;;;;15.93;100.00;100808.19;5304984;28;19916;-74
2023/09/19 04:08:37;;;;;;;;;;;;;;;15.98;100.00;100808.50;5305753;28;19919;-72
2023/09/19 04:11:08;;;;;;;;;;;;;;;15.98;100.00;100805.84;5306053;28;20018;-74
2023/09/19 04:13:40;;;;;;;;;;;;;;;15.93;100.00;100794.97;5286611;28;19927;-71
2023/09/19 04:16:11;;;;;;;;;;;;;;;15.99;100.00;100802.25;5305882;28;20285;-74
2023/09/19 04:18:43;;;;;;;;;;;;;;;15.95;100.00;100802.75;5306602;28;20393;-71
2023/09/19 04:21:14;;;;;;;;;;;;;;;15.96;100.00;100814.97;5304909;28;20044;-73
2023/09/19 04:23:45;;;;;;;;;;;;;;;16.00;100.00;100819.75;5306422;28;19973;-74
2023/09/19 04:26:16;;;;;;;;;;;;;;;16.00;100.00;100827.66;5312381;28;19912;-71
2023/09/19 04:28:47;;;;;;;;;;;;;;;16.02;100.00;100824.84;5307513;28;20768;-74
2023/09/19 04:31:20;;;;;;;;;;;;;;;16.01;100.00;100839.06;5303071;28;19916;-74
2023/09/19 04:33:51;;;;;;;;;;;;;;;16.03;100.00;100845.03;5305060;28;19924;-74
2023/09/19 04:36:22;;;;;;;;;;;;;;;16.01;100.00;100850.44;5303314;28;19916;-75
2023/09/19 04:38:53;;;;;;;;;;;;;;;16.05;100.00;100857.06;5302318;28;19919;-75
2023/09/19 04:41:25;;;;;;;;;;;;;;;16.07;100.00;100861.38;5302737;28;20415;-73
2023/09/19 04:43:56;;;;;;;;;;;;;;;16.09;100.00;100860.19;5303998;28;20411;-74
2023/09/19 04:46:27;;;;;;;;;;;;;;;16.11;100.00;100870.63;5307961;28;19970;-75
2023/09/19 04:48:59;;;;;;;;;;;;;;;16.15;100.00;100871.94;5308489;28;19955;-75
2023/09/19 04:51:34;;;;;;;;;;;;;;;16.17;100.00;100877.88;5304556;28;19961;-74
2023/09/19 04:54:05;;;;;;;;;;;;;;;16.22;100.00;100883.50;5300780;28;19919;-75
2023/09/19 04:56:40;;;;;;;;;;;;;;;16.26;100.00;100890.09;5306058;28;19923;-74
2023/09/19 04:59:11;;;;;;;;;;;;;;;16.23;100.00;100885.16;5304103;28;20293;-75
2023/09/19 05:01:42;;;;;;;;;;;;;;;16.25;100.00;100884.00;5304495;28;19920;-75
2023/09/19 05:04:13;;;;;;;;;;;;;;;16.28;100.00;100885.47;5306018;28;19973;-74
2023/09/19 05:06:44;;;;;;;;;;;;;;;16.29;100.00;100890.59;5309314;28;20531;-75
2023/09/19 05:09:19;;;;;;;;;;;;;;;16.25;100.00;100889.28;5311435;28;19934;-74
2023/09/19 05:11:51;;;;;;;;;;;;;;;16.27;100.00;100895.22;5310953;28;19926;-74
2023/09/19 05:14:22;;;;;;;;;;;;;;;16.24;100.00;100887.59;5308873;28;19928;-73
2023/09/19 05:16:54;;;;;;;;;;;;;;;16.22;100.00;100892.25;5305721;28;19920;-75
2023/09/19 05:19:25;;;;;;;;;;;;;;;16.21;100.00;100887.13;5310476;28;20330;-75
2023/09/19 05:21:57;;;;;;;;;;;;;;;16.17;100.00;100891.09;5309921;28;19945;-74
2023/09/19 05:24:28;;;;;;;;;;;;;;;16.18;100.00;100896.22;5307675;28;20327;-74
2023/09/19 05:26:59;;;;;;;;;;;;;;;16.17;100.00;100889.25;5311795;28;19919;-75
2023/09/19 05:29:30;;;;;;;;;;;;;;;16.21;100.00;100895.03;5309184;28;19916;-74
2023/09/19 05:32:03;;;;;;;;;;;;;;;16.19;100.00;100897.03;5305620;28;20003;-75
2023/09/19 05:34:34;;;;;;;;;;;;;;;16.20;100.00;100893.41;5313692;28;19990;-74
2023/09/19 05:37:07;;;;;;;;;;;;;;;16.19;100.00;100903.16;5313985;28;20007;-74
2023/09/19 05:39:38;;;;;;;;;;;;;;;16.14;100.00;100897.53;5309925;28;19919;-75
2023/09/19 05:42:09;;;;;;;;;;;;;;;16.15;100.00;100908.94;5307916;28;19917;-75
2023/09/19 05:44:40;;;;;;;;;;;;;;;16.18;100.00;100903.34;5313647;28;19920;-75
2023/09/19 05:47:12;;;;;;;;;;;;;;;16.16;100.00;100906.13;5306061;28;19920;-74
2023/09/19 05:49:44;;;;;;;;;;;;;;;16.16;100.00;100900.00;5307165;28;19908;-73
2023/09/19 05:52:16;;;;;;;;;;;;;;;16.15;100.00;100898.38;5311333;28;20399;-74
2023/09/19 05:54:47;;;;;;;;;;;;;;;16.15;100.00;100891.25;5309205;28;20336;-75
2023/09/19 05:57:18;;;;;;;;;;;;;;;16.11;100.00;100882.00;5310255;28;19919;-75
2023/09/19 05:59:50;;;;;;;;;;;;;;;16.11;100.00;100884.66;5307990;28;19941;-75
2023/09/19 06:02:21;;;;;;;;;;;;;;;16.17;100.00;100883.16;5308647;28;19923;-75
2023/09/19 06:04:55;;;;;;;;;;;;;;;16.20;100.00;100890.75;5303878;28;20348;-74
2023/09/19 06:07:27;;;;;;;;;;;;;;;16.20;100.00;100888.13;5312085;28;19924;-75
2023/09/19 06:09:59;;;;;;;;;;;;;;;16.22;100.00;100894.91;5310981;28;19958;-75
2023/09/19 06:12:30;;;;;;;;;;;;;;;16.23;100.00;100893.06;5307910;28;19916;-74
2023/09/19 06:15:01;;;;;;;;;;;;;;;16.21;100.00;100898.53;5309805;28;20311;-75
2023/09/19 06:17:33;;;;;;;;;;;;;;;16.25;100.00;100899.00;5311675;28;19966;-74
2023/09/19 06:20:09;;;;;;;;;;;;;;;16.26;100.00;100900.69;5302392;28;19919;-73
2023/09/19 06:22:44;;;;;;;;;;;;;;;16.24;100.00;100905.28;5307329;28;19974;-75
2023/09/19 06:25:19;;;;;;;;;;;;;;;16.31;100.00;100908.94;5310814;28;19919;-75
2023/09/19 06:27:56;;;;;;;;;;;;;;;16.32;100.00;100904.47;5309335;28;19920;-75
2023/09/19 06:30:29;;;;;;;;;;;;;;;16.33;100.00;100917.53;5292227;28;19915;-74
2023/09/19 06:33:00;;;;;;;;;;;;;;;16.34;100.00;100916.53;5309964;28;19919;-75
2023/09/19 06:35:32;;;;;;;;;;;;;;;16.42;100.00;100926.28;5305979;22;19936;-73
2023/09/19 06:38:05;;;;;;;;;;;;;;;16.37;100.00;100929.44;5257369;28;19920;-72
2023/09/19 06:40:36;;;;;;;;;;;;;;;16.35;100.00;100931.41;5258176;28;19947;-73
2023/09/19 06:43:09;;;;;;;;;;;;;;;16.44;100.00;100919.84;5257492;28;20370;-73
2023/09/19 06:45:41;;;;;;;;;;;;;;;16.45;100.00;100924.13;5254296;28;19964;-73
2023/09/19 06:48:13;;;;;;;;;;;;;;;16.48;100.00;100922.97;5258034;28;20357;-73
2023/09/19 06:50:44;;;;;;;;;;;;;;;16.49;100.00;100935.22;5265959;22;19956;-74
2023/09/19 06:53:16;;;;;;;;;;;;;;;16.56;100.00;100936.19;5256566;28;19936;-74
2023/09/19 06:55:47;;;;;;;;;;;;;;;16.57;100.00;100932.56;5251186;28;19921;-74
2023/09/19 06:58:20;;;;;;;;;;;;;;;16.57;100.00;100935.19;5225272;28;19972;-74
2023/09/19 07:00:51;;;;;;;;;;;;;;;16.62;100.00;100932.03;5241755;28;19921;-74
2023/09/19 07:03:25;;;;;;;;;;;;;;;16.60;100.00;100928.75;5225825;28;19928;-74
2023/09/19 07:05:58;;;;;;;;;;;;;;;16.67;100.00;100932.38;5243556;28;19928;-74
2023/09/19 07:08:29;;;;;;;;;;;;;;;16.67;100.00;100922.63;5244160;28;19916;-74
2023/09/19 07:11:00;;;;;;;;;;;;;;;16.70;100.00;100932.03;5242676;28;19944;-75
2023/09/19 07:13:32;;;;;;;;;;;;;;;16.77;100.00;100933.84;5261695;28;19982;-74
2023/09/19 07:16:03;;;;;;;;;;;;;;;16.82;100.00;100943.13;5248253;28;19912;-75
2023/09/19 07:18:36;;;;;;;;;;;;;;;16.81;100.00;100930.88;5250153;28;19917;-74
2023/09/19 07:21:08;;;;;;;;;;;;;;;16.88;100.00;100939.81;5244799;28;19931;-73
2023/09/19 07:23:39;;;;;;;;;;;;;;;16.81;100.00;100944.13;5242445;28;19920;-72
2023/09/19 07:26:10;;;;;;;;;;;;;;;16.85;100.00;100935.66;5244052;28;20007;-74
2023/09/19 07:28:42;;;;;;;;;;;;;;;16.95;100.00;100938.97;5244797;28;20024;-73
2023/09/19 07:31:14;;;;;;;;;;;;;;;16.99;100.00;100939.44;5243357;28;19917;-74
2023/09/19 07:33:45;;;;;;;;;;;;;;;17.07;100.00;100934.13;5244898;28;19917;-73
2023/09/19 07:36:16;;;;;;;;;;;;;;;17.10;100.00;100931.16;5267751;28;20297;-72
2023/09/19 07:38:48;;;;;;;;;;;;;;;17.19;100.00;100927.44;5245681;28;19940;-75
2023/09/19 07:41:19;;;;;;;;;;;;;;;17.24;100.00;100932.25;5243185;28;20374;-73
2023/09/19 07:43:50;;;;;;;;;;;;;;;17.35;100.00;100926.59;5241771;28;20395;-73
2023/09/19 07:46:22;;;;;;;;;;;;;;;17.45;100.00;100926.38;5246248;28;19947;-73
2023/09/19 07:48:53;;;;;;;;;;;;;;;17.49;100.00;100931.13;5240655;28;20011;-73
2023/09/19 07:51:25;;;;;;;;;;;;;;;17.60;100.00;100939.69;5246777;28;19967;-72
2023/09/19 07:53:56;;;;;;;;;;;;;;;17.60;100.00;100939.69;5247569;28;19924;-73
2023/09/19 07:56:27;;;;;;;;;;;;;;;17.67;100.00;100944.13;5243290;28;19920;-73
2023/09/19 07:58:59;;;;;;;;;;;;;;;17.74;100.00;100934.50;5241778;28;19932;-73
2023/09/19 08:01:30;;;;;;;;;;;;;;;17.84;100.00;100936.97;5239323;28;19921;-73
2023/09/19 08:04:01;;;;;;;;;;;;;;;17.87;100.00;100931.28;5246196;28;19917;-73
2023/09/19 08:06:32;;;;;;;;;;;;;;;18.01;100.00;100937.66;5247851;28;19916;-73
2023/09/19 08:09:07;;;;;;;;;;;;;;;18.04;100.00;100944.44;5240818;28;19959;-72
2023/09/19 08:11:39;;;;;;;;;;;;;;;18.17;100.00;100944.66;5244053;28;19982;-73
2023/09/19 08:14:14;;;;;;;;;;;;;;;18.19;100.00;100950.63;5242914;28;19928;-74
2023/09/19 08:16:45;;;;;;;;;;;;;;;18.22;100.00;100942.31;5247487;28;20238;-73
2023/09/19 08:19:16;;;;;;;;;;;;;;;18.31;100.00;100948.38;5244347;28;20373;-72
2023/09/19 08:21:47;;;;;;;;;;;;;;;18.01;100.00;100942.97;5244154;28;19917;-74
2023/09/19 08:24:19;;;;;;;;;;;;;;;18.27;100.00;100947.09;5247756;28;19928;-73
2023/09/19 08:26:51;;;;;;;;;;;;;;;18.44;100.00;100941.47;5227948;28;20008;-74
2023/09/19 08:29:27;;;;;;;;;;;;;;;18.54;100.00;100943.88;5241750;28;19964;-73
2023/09/19 08:31:58;;;;;;;;;;;;;;;18.58;100.00;100942.50;5239773;28;19985;-73
2023/09/19 08:34:34;;;;;;;;;;;;;;;18.67;100.00;100944.06;5243570;28;19917;-73
2023/09/19 08:37:05;;;;;;;;;;;;;;;18.74;100.00;100948.69;5242560;28;19925;-72
2023/09/19 08:39:36;;;;;;;;;;;;;;;18.83;100.00;100947.63;5245495;28;19963;-73
2023/09/19 08:42:08;;;;;;;;;;;;;;;18.87;100.00;100951.56;5244212;28;20331;-74
2023/09/19 08:44:40;;;;;;;;;;;;;;;18.91;100.00;100950.19;5245129;28;19917;-73
2023/09/19 08:47:15;;;;;;;;;;;;;;;18.85;100.00;100950.91;5259475;28;20634;-74
2023/09/19 08:49:49;;;;;;;;;;;;;;;18.71;100.00;100942.75;5242484;28;19925;-74
2023/09/19 08:52:23;;;;;;;;;;;;;;;18.71;100.00;100942.75;5245713;28;19917;-74
2023/09/19 08:54:58;;;;;;;;;;;;;;;18.82;100.00;100948.59;5247943;28;19917;-74
2023/09/19 08:57:34;;;;;;;;;;;;;;;19.03;100.00;100954.03;5242706;28;19952;-74
2023/09/19 09:00:10;;;;;;;;;;;;;;;19.11;100.00;100943.31;5244395;28;20457;-74
2023/09/19 09:02:43;;;;;;;;;;;;;;;19.27;100.00;100954.75;5244226;28;20389;-74
2023/09/19 09:05:16;;;;;;;;;;;;;;;19.33;100.00;100946.06;5241818;28;19957;-73
2023/09/19 09:07:47;;;;;;;;;;;;;;;19.37;100.00;100945.50;5246094;28;20003;-74
2023/09/19 09:10:22;;;;;;;;;;;;;;;19.49;100.00;100945.03;5225989;28;19917;-73
2023/09/19 09:12:55;;;;;;;;;;;;;;;19.59;100.00;100941.06;5242173;28;20384;-74
2023/09/19 09:15:29;;;;;;;;;;;;;;;19.65;100.00;100942.16;5243900;28;20419;-74
2023/09/19 09:18:02;;;;;;;;;;;;;;;19.80;100.00;100953.59;5247584;28;19917;-74
2023/09/19 09:20:33;;;;;;;;;;;;;;;19.87;100.00;100957.16;5244847;28;19920;-74
2023/09/19 09:23:05;;;;;;;;;;;;;;;19.93;100.00;100956.41;5246592;28;19962;-73
2023/09/19 09:25:46;;;;;;;;;;;;;;;19.85;100.00;100951.19;5245045;28;19924;-76
2023/09/19 09:28:21;;;;;;;;;;;;;;;19.92;100.00;100954.72;5245265;28;20003;-72
2023/09/19 09:30:53;;;;;;;;;;;;;;;20.08;100.00;100948.38;5259307;28;19956;-73
2023/09/19 09:33:25;;;;;;;;;;;;;;;20.16;100.00;100947.41;5244584;28;19975;-73
2023/09/19 09:35:59;;;;;;;;;;;;;;;20.24;100.00;100943.81;5244964;28;19924;-73
2023/09/19 09:38:45;;;;;;;;;;;;;;;20.21;100.00;100929.03;5245144;28;19917;-73
2023/09/19 09:41:27;;;;;;;;;;;;;;;20.23;100.00;100931.50;5245994;28;19920;-74
2023/09/19 09:44:13;;;;;;;;;;;;;;;20.24;100.00;100923.34;5239089;28;20016;-75
2023/09/19 09:49:33;;;;;;;;;;;;;;;20.25;100.00;100919.66;5250634;28;19917;-73
2023/09/19 09:52:07;;;;;;;;;;;;;;;20.41;100.00;100923.88;5245595;28;20045;-74
2023/09/19 09:54:38;;;;;;;;;;;;;;;20.43;100.00;100916.53;5244591;28;19928;-74
2023/09/19 09:57:25;;;;;;;;;;;;;;;20.50;98.05;100928.09;5237794;28;19913;-73
2023/09/19 10:00:16;;;;;;;;;;;;;;;20.55;100.00;100924.84;5250512;28;19924;-74
2023/09/19 10:02:47;;;;;;;;;;;;;;;20.68;100.00;100924.09;5243462;28;19972;-73
2023/09/19 10:07:53;;;;;;;;;;;;;;;20.71;99.52;100931.69;5247638;28;19971;-74
2023/09/19 10:10:38;;;;;;;;;;;;;;;20.81;97.72;100929.53;5245098;28;19924;-74
2023/09/19 10:13:13;;;;;;;;;;;;;;;20.92;99.53;100939.63;5248864;28;20286;-72
2023/09/19 10:15:51;;;;;;;;;;;;;;;20.89;94.24;100929.38;5245610;28;19956;-74
2023/09/19 10:18:23;;;;;;;;;;;;;;;21.09;97.91;100932.13;5244120;28;20003;-73
2023/09/19 10:20:55;;;;;;;;;;;;;;;21.13;97.01;100920.06;5244160;28;20011;-73
2023/09/19 10:23:30;;;;;;;;;;;;;;;21.16;96.44;100918.84;5250575;28;20403;-72
2023/09/19 10:26:01;;;;;;;;;;;;;;;21.12;90.75;100921.91;5246317;28;19999;-73
2023/09/19 10:28:33;;;;;;;;;;;;;;;21.13;92.53;100912.88;5248924;28;20873;-73
2023/09/19 10:31:05;;;;;;;;;;;;;;;21.09;90.65;100924.97;5244932;28;20289;-74
2023/09/19 10:33:37;;;;;;;;;;;;;;;21.14;91.46;100935.06;5244507;28;20017;-74
2023/09/19 10:36:11;;;;;;;;;;;;;;;21.08;88.31;100922.50;5242393;28;20011;-74
2023/09/19 10:38:43;;;;;;;;;;;;;;;21.22;89.57;100923.41;5243470;28;19935;-74
2023/09/19 10:41:16;;;;;;;;;;;;;;;21.31;88.17;100915.03;5243019;28;19921;-74
2023/09/19 10:43:48;;;;;;;;;;;;;;;21.48;86.79;100920.88;5239255;28;19959;-73
2023/09/19 10:46:19;;;;;;;;;;;;;;;21.64;88.82;100918.88;5246319;28;19920;-74
2023/09/19 10:48:54;;;;;;;;;;;;;;;21.69;86.26;100927.06;5245960;28;20013;-74
2023/09/19 10:51:28;;;;;;;;;;;;;;;21.79;87.50;100903.53;5247338;28;19928;-74
2023/09/19 10:54:07;;;;;;;;;;;;;;;21.88;85.68;100902.28;5224687;28;19922;-73
2023/09/19 10:56:42;;;;;;;;;;;;;;;21.92;82.69;100911.53;5223466;28;19925;-73
2023/09/19 10:59:20;;;;;;;;;;;;;;;21.97;80.16;100914.44;5222084;28;19917;-74
2023/09/19 11:01:53;;;;;;;;;;;;;;;21.96;77.22;100895.94;5223191;28;20022;-74
2023/09/19 11:04:31;;;;;;;;;;;;;;;22.07;78.32;100922.84;5223579;28;19921;-74
2023/09/19 11:07:14;;;;;;;;;;;;;;;21.93;76.88;100886.50;5220163;28;19921;-74
2023/09/19 11:09:46;;;;;;;;;;;;;;;21.98;78.22;100878.72;5223595;28;20289;-74
2023/09/19 11:15:07;;;;;;;;;;;;;;;22.08;76.88;100876.44;5225014;28;20020;-74
2023/09/19 11:17:42;;;;;;;;;;;;;;;22.15;74.90;100881.00;5220936;28;19999;-74
2023/09/19 11:22:56;;;;;;;;;;;;;;;22.37;76.11;100869.09;5227433;28;19975;-73
2023/09/19 11:25:29;;;;;;;;;;;;;;;22.46;75.34;100867.81;5222788;28;19924;-74
2023/09/19 11:28:08;;;;;;;;;;;;;;;22.51;75.01;100873.38;5225221;28;19962;-74
2023/09/19 11:30:40;;;;;;;;;;;;;;;22.56;70.58;100864.75;5224439;28;19918;-73
2023/09/19 11:33:33;;;;;;;;;;;;;;;22.77;74.96;100850.31;5228212;28;19928;-73
2023/09/19 11:36:09;;;;;;;;;;;;;;;22.77;69.02;100839.66;5227553;28;19925;-71
2023/09/19 11:38:49;;;;;;;;;;;;;;;22.90;68.39;100847.59;5227942;28;19921;-74
2023/09/19 11:41:21;;;;;;;;;;;;;;;23.05;71.97;100848.19;5223170;28;19920;-74
2023/09/19 11:43:55;;;;;;;;;;;;;;;23.07;66.89;100845.31;5219845;28;19922;-74
2023/09/19 11:46:45;;;;;;;;;;;;;;;23.18;65.77;100835.78;5221302;28;19921;-73
2023/09/19 11:49:20;;;;;;;;;;;;;;;23.19;64.24;100832.91;5226880;28;19917;-73
2023/09/19 11:51:52;;;;;;;;;;;;;;;23.24;66.10;100834.94;5236532;28;19925;-73
2023/09/19 11:54:25;;;;;;;;;;;;;;;23.14;63.62;100824.69;5235927;28;19924;-74
2023/09/19 11:56:57;;;;;;;;;;;;;;;23.02;65.40;100816.53;5236277;28;20095;-73
2023/09/19 11:59:30;;;;;;;;;;;;;;;23.02;66.34;100827.22;5235783;28;19921;-74
2023/09/19 12:02:03;;;;;;;;;;;;;;;23.07;68.36;100826.59;5235092;28;19924;-74
2023/09/19 12:04:43;;;;;;;;;;;;;;;23.09;66.17;100829.06;5235068;28;19921;-75
2023/09/19 12:07:15;;;;;;;;;;;;;;;23.13;65.40;100828.41;5233700;28;19944;-74
2023/09/19 12:09:47;;;;;;;;;;;;;;;23.19;65.58;100824.09;5235521;28;20358;-74
2023/09/19 12:12:22;;;;;;;;;;;;;;;23.08;64.36;100827.44;5236190;28;20328;-74
2023/09/19 12:14:54;;;;;;;;;;;;;;;23.17;65.57;100828.81;5235863;28;20650;-75
2023/09/19 12:17:39;;;;;;;;;;;;;;;22.97;62.51;100824.38;5235011;28;20427;-74
2023/09/19 12:20:13;;;;;;;;;;;;;;;23.18;65.92;100825.91;5234749;28;19925;-75
2023/09/19 12:22:46;;;;;;;;;;;;;;;23.19;63.77;100840.94;5234774;28;20436;-75
2023/09/19 12:25:18;;;;;;;;;;;;;;;22.99;64.21;100832.16;5236171;28;19948;-75
2023/09/19 12:27:52;;;;;;;;;;;;;;;23.08;67.41;100830.09;5234518;28;19917;-73
2023/09/19 12:30:27;;;;;;;;;;;;;;;23.13;69.19;100840.97;5236185;28;20309;-74
2023/09/19 12:32:59;;;;;;;;;;;;;;;22.93;65.45;100849.88;5234807;28;20380;-74
2023/09/19 12:35:34;;;;;;;;;;;;;;;22.85;66.63;100847.41;5234739;28;19960;-74
2023/09/19 12:38:07;;;;;;;;;;;;;;;22.62;67.69;100837.22;5234040;28;19952;-73
2023/09/19 12:40:42;;;;;;;;;;;;;;;22.46;66.98;100830.44;5235790;28;19971;-75
2023/09/19 12:43:15;;;;;;;;;;;;;;;22.67;69.38;100839.25;5235640;28;19928;-74
2023/09/19 12:45:47;;;;;;;;;;;;;;;22.82;68.99;100831.81;5235560;28;19921;-73
2023/09/19 12:48:35;;;;;;;;;;;;;;;23.11;69.17;100830.50;5234962;28;19921;-74
2023/09/19 12:51:07;;;;;;;;;;;;;;;23.23;67.22;100822.63;5290035;23;19942;-73
2023/09/19 12:53:43;;;;;;;;;;;;;;;23.26;65.64;100816.81;5302573;28;19999;-74
2023/09/19 12:56:15;;;;;;;;;;;;;;;23.31;65.26;100825.84;5302776;28;19919;-74
2023/09/19 12:58:54;;;;;;;;;;;;;;;23.52;67.62;100823.84;5302954;28;20017;-73
2023/09/19 13:01:27;;;;;;;;;;;;;;;23.49;66.33;100837.69;5307359;28;19927;-73
2023/09/19 13:04:25;;;;;;;;;;;;;;;23.29;63.55;100827.91;5304858;28;20018;-74
2023/09/19 13:07:00;;;;;;;;;;;;;;;23.48;64.49;100820.78;5307021;28;19966;-73
2023/09/19 13:09:34;;;;;;;;;;;;;;;23.53;63.77;100828.19;5307806;28;19993;-73